sensor_id;sensor_type;location;lat;lon;timestamp;P1;durP1;ratioP1;P2;durP2;ratioP2
17668;SDS011;8953;48.694;8.940;2022-12-18T00:02:27;14.38;;;10.60;;
17668;SDS011;8953;48.694;8.940;2022-12-18T00:04:57;15.45;;;10.93;;
17668;SDS011;8953;48.694;8.940;2022-12-18T00:07:25;15.40;;;11.63;;
17668;SDS011;8953;48.694;8.940;2022-12-18T00:09:52;14.70;;;10.98;;
17668;SDS011;8953;48.694;8.940;2022-12-18T00:12:19;12.68;;;10.52;;
17668;SDS011;8953;48.694;8.940;2022-12-18T00:14:48;13.45;;;10.05;;
17668;SDS011;8953;48.694;8.940;2022-12-18T00:17:15;12.70;;;9.93;;
17668;SDS011;8953;48.694;8.940;2022-12-18T00:19:42;12.73;;;9.85;;
17668;SDS011;8953;48.694;8.940;2022-12-18T00:22:10;12.32;;;9.70;;
17668;SDS011;8953;48.694;8.940;2022-12-18T00:24:37;11.40;;;9.93;;
17668;SDS011;8953;48.694;8.940;2022-12-18T00:27:04;13.45;;;9.70;;
17668;SDS011;8953;48.694;8.940;2022-12-18T00:29:32;12.73;;;10.05;;
17668;SDS011;8953;48.694;8.940;2022-12-18T00:32:01;12.32;;;9.98;;
17668;SDS011;8953;48.694;8.940;2022-12-18T00:34:28;12.70;;;10.25;;
17668;SDS011;8953;48.694;8.940;2022-12-18T00:36:59;11.90;;;9.40;;
17668;SDS011;8953;48.694;8.940;2022-12-18T00:39:26;11.02;;;9.18;;
17668;SDS011;8953;48.694;8.940;2022-12-18T00:41:54;11.88;;;9.57;;
17668;SDS011;8953;48.694;8.940;2022-12-18T00:44:42;11.02;;;9.23;;
17668;SDS011;8953;48.694;8.940;2022-12-18T00:47:10;11.55;;;8.82;;
17668;SDS011;8953;48.694;8.940;2022-12-18T00:49:37;12.25;;;9.77;;
17668;SDS011;8953;48.694;8.940;2022-12-18T00:52:05;12.38;;;9.13;;
17668;SDS011;8953;48.694;8.940;2022-12-18T00:54:32;13.30;;;9.73;;
17668;SDS011;8953;48.694;8.940;2022-12-18T00:57:00;10.45;;;9.43;;
17668;SDS011;8953;48.694;8.940;2022-12-18T00:59:27;10.50;;;8.88;;
17668;SDS011;8953;48.694;8.940;2022-12-18T01:01:55;9.95;;;8.50;;
17668;SDS011;8953;48.694;8.940;2022-12-18T01:04:24;9.85;;;8.85;;
17668;SDS011;8953;48.694;8.940;2022-12-18T01:06:51;9.55;;;8.48;;
17668;SDS011;8953;48.694;8.940;2022-12-18T01:09:19;10.32;;;9.10;;
17668;SDS011;8953;48.694;8.940;2022-12-18T01:11:46;9.32;;;8.38;;
17668;SDS011;8953;48.694;8.940;2022-12-18T01:14:13;10.00;;;8.98;;
17668;SDS011;8953;48.694;8.940;2022-12-18T01:16:40;10.10;;;8.70;;
17668;SDS011;8953;48.694;8.940;2022-12-18T01:19:07;10.10;;;9.10;;
17668;SDS011;8953;48.694;8.940;2022-12-18T01:21:36;9.50;;;8.52;;
17668;SDS011;8953;48.694;8.940;2022-12-18T01:24:03;8.57;;;7.63;;
17668;SDS011;8953;48.694;8.940;2022-12-18T01:26:31;9.30;;;8.30;;
17668;SDS011;8953;48.694;8.940;2022-12-18T01:28:58;9.38;;;8.43;;
17668;SDS011;8953;48.694;8.940;2022-12-18T01:31:29;9.23;;;8.27;;
17668;SDS011;8953;48.694;8.940;2022-12-18T01:33:56;8.52;;;7.63;;
17668;SDS011;8953;48.694;8.940;2022-12-18T01:36:24;9.63;;;8.70;;
17668;SDS011;8953;48.694;8.940;2022-12-18T01:38:53;8.95;;;8.05;;
17668;SDS011;8953;48.694;8.940;2022-12-18T01:41:21;11.10;;;8.40;;
17668;SDS011;8953;48.694;8.940;2022-12-18T01:43:50;11.02;;;8.40;;
17668;SDS011;8953;48.694;8.940;2022-12-18T01:46:18;9.23;;;8.20;;
17668;SDS011;8953;48.694;8.940;2022-12-18T01:48:46;8.88;;;7.95;;
17668;SDS011;8953;48.694;8.940;2022-12-18T01:51:14;10.25;;;8.75;;
17668;SDS011;8953;48.694;8.940;2022-12-18T01:53:42;9.02;;;8.13;;
17668;SDS011;8953;48.694;8.940;2022-12-18T01:56:13;8.35;;;7.53;;
17668;SDS011;8953;48.694;8.940;2022-12-18T01:58:44;8.52;;;7.68;;
17668;SDS011;8953;48.694;8.940;2022-12-18T02:01:12;8.98;;;8.07;;
17668;SDS011;8953;48.694;8.940;2022-12-18T02:03:41;8.27;;;7.47;;
17668;SDS011;8953;48.694;8.940;2022-12-18T02:06:10;8.40;;;7.57;;
17668;SDS011;8953;48.694;8.940;2022-12-18T02:08:40;8.55;;;7.70;;
17668;SDS011;8953;48.694;8.940;2022-12-18T02:11:11;8.60;;;7.70;;
17668;SDS011;8953;48.694;8.940;2022-12-18T02:13:43;8.40;;;7.57;;
17668;SDS011;8953;48.694;8.940;2022-12-18T02:16:15;8.48;;;7.57;;
17668;SDS011;8953;48.694;8.940;2022-12-18T02:18:48;8.70;;;7.80;;
17668;SDS011;8953;48.694;8.940;2022-12-18T02:21:19;8.82;;;7.93;;
17668;SDS011;8953;48.694;8.940;2022-12-18T02:23:50;8.68;;;7.78;;
17668;SDS011;8953;48.694;8.940;2022-12-18T02:26:25;8.18;;;7.40;;
17668;SDS011;8953;48.694;8.940;2022-12-18T02:28:55;7.53;;;6.82;;
17668;SDS011;8953;48.694;8.940;2022-12-18T02:31:25;8.20;;;7.40;;
17668;SDS011;8953;48.694;8.940;2022-12-18T02:33:56;8.65;;;7.75;;
17668;SDS011;8953;48.694;8.940;2022-12-18T02:36:25;7.80;;;7.00;;
17668;SDS011;8953;48.694;8.940;2022-12-18T02:38:54;8.05;;;7.25;;
17668;SDS011;8953;48.694;8.940;2022-12-18T02:41:25;8.00;;;7.20;;
17668;SDS011;8953;48.694;8.940;2022-12-18T02:43:53;7.80;;;7.07;;
17668;SDS011;8953;48.694;8.940;2022-12-18T02:46:26;7.90;;;7.10;;
17668;SDS011;8953;48.694;8.940;2022-12-18T02:48:54;7.65;;;6.95;;
17668;SDS011;8953;48.694;8.940;2022-12-18T02:51:23;7.63;;;6.93;;
17668;SDS011;8953;48.694;8.940;2022-12-18T02:53:53;7.47;;;6.72;;
17668;SDS011;8953;48.694;8.940;2022-12-18T02:56:23;7.97;;;7.18;;
17668;SDS011;8953;48.694;8.940;2022-12-18T02:58:55;8.18;;;7.38;;
17668;SDS011;8953;48.694;8.940;2022-12-18T03:01:25;8.02;;;7.20;;
17668;SDS011;8953;48.694;8.940;2022-12-18T03:03:55;7.90;;;7.10;;
17668;SDS011;8953;48.694;8.940;2022-12-18T03:06:23;8.00;;;6.53;;
17668;SDS011;8953;48.694;8.940;2022-12-18T03:08:54;8.63;;;7.38;;
17668;SDS011;8953;48.694;8.940;2022-12-18T03:11:23;6.85;;;6.15;;
17668;SDS011;8953;48.694;8.940;2022-12-18T03:14:06;7.63;;;6.70;;
17668;SDS011;8953;48.694;8.940;2022-12-18T03:16:34;6.88;;;6.18;;
17668;SDS011;8953;48.694;8.940;2022-12-18T03:19:03;7.30;;;6.60;;
17668;SDS011;8953;48.694;8.940;2022-12-18T03:21:32;7.50;;;6.80;;
17668;SDS011;8953;48.694;8.940;2022-12-18T03:24:01;6.65;;;5.93;;
17668;SDS011;8953;48.694;8.940;2022-12-18T03:26:30;7.13;;;6.43;;
17668;SDS011;8953;48.694;8.940;2022-12-18T03:28:59;7.00;;;6.40;;
17668;SDS011;8953;48.694;8.940;2022-12-18T03:31:28;6.97;;;6.28;;
17668;SDS011;8953;48.694;8.940;2022-12-18T03:33:57;6.35;;;5.82;;
17668;SDS011;8953;48.694;8.940;2022-12-18T03:36:25;6.88;;;6.28;;
17668;SDS011;8953;48.694;8.940;2022-12-18T03:38:53;7.07;;;6.38;;
17668;SDS011;8953;48.694;8.940;2022-12-18T03:41:23;7.15;;;5.95;;
17668;SDS011;8953;48.694;8.940;2022-12-18T03:43:54;7.25;;;5.97;;
17668;SDS011;8953;48.694;8.940;2022-12-18T03:46:26;6.53;;;5.93;;
17668;SDS011;8953;48.694;8.940;2022-12-18T03:48:58;6.55;;;5.95;;
17668;SDS011;8953;48.694;8.940;2022-12-18T03:51:27;6.30;;;5.70;;
17668;SDS011;8953;48.694;8.940;2022-12-18T03:53:55;6.38;;;5.78;;
17668;SDS011;8953;48.694;8.940;2022-12-18T03:56:25;6.20;;;5.60;;
17668;SDS011;8953;48.694;8.940;2022-12-18T03:58:53;6.28;;;5.68;;
17668;SDS011;8953;48.694;8.940;2022-12-18T04:01:23;6.00;;;5.40;;
17668;SDS011;8953;48.694;8.940;2022-12-18T04:03:52;6.70;;;6.10;;
17668;SDS011;8953;48.694;8.940;2022-12-18T04:06:21;5.82;;;5.32;;
17668;SDS011;8953;48.694;8.940;2022-12-18T04:08:48;5.95;;;5.45;;
17668;SDS011;8953;48.694;8.940;2022-12-18T04:11:15;6.28;;;5.68;;
17668;SDS011;8953;48.694;8.940;2022-12-18T04:13:43;6.15;;;5.55;;
17668;SDS011;8953;48.694;8.940;2022-12-18T04:16:10;6.13;;;5.53;;
17668;SDS011;8953;48.694;8.940;2022-12-18T04:18:37;5.97;;;5.35;;
17668;SDS011;8953;48.694;8.940;2022-12-18T04:21:05;5.88;;;5.30;;
17668;SDS011;8953;48.694;8.940;2022-12-18T04:23:33;6.50;;;5.90;;
17668;SDS011;8953;48.694;8.940;2022-12-18T04:26:00;6.20;;;5.63;;
17668;SDS011;8953;48.694;8.940;2022-12-18T04:28:28;5.78;;;5.28;;
17668;SDS011;8953;48.694;8.940;2022-12-18T04:30:55;5.55;;;5.05;;
17668;SDS011;8953;48.694;8.940;2022-12-18T04:33:22;5.55;;;5.05;;
17668;SDS011;8953;48.694;8.940;2022-12-18T04:35:49;5.80;;;5.30;;
17668;SDS011;8953;48.694;8.940;2022-12-18T04:38:16;5.68;;;5.13;;
17668;SDS011;8953;48.694;8.940;2022-12-18T04:40:45;6.13;;;5.55;;
17668;SDS011;8953;48.694;8.940;2022-12-18T04:43:13;5.60;;;5.05;;
17668;SDS011;8953;48.694;8.940;2022-12-18T04:45:40;5.60;;;5.00;;
17668;SDS011;8953;48.694;8.940;2022-12-18T04:48:07;5.85;;;5.35;;
17668;SDS011;8953;48.694;8.940;2022-12-18T04:50:34;5.22;;;4.72;;
17668;SDS011;8953;48.694;8.940;2022-12-18T04:53:01;5.55;;;5.05;;
17668;SDS011;8953;48.694;8.940;2022-12-18T04:55:29;4.85;;;4.43;;
17668;SDS011;8953;48.694;8.940;2022-12-18T04:57:57;5.22;;;4.72;;
17668;SDS011;8953;48.694;8.940;2022-12-18T05:00:25;5.28;;;4.78;;
17668;SDS011;8953;48.694;8.940;2022-12-18T05:02:52;4.93;;;4.50;;
17668;SDS011;8953;48.694;8.940;2022-12-18T05:05:19;5.03;;;4.53;;
17668;SDS011;8953;48.694;8.940;2022-12-18T05:07:46;5.15;;;4.68;;
17668;SDS011;8953;48.694;8.940;2022-12-18T05:10:14;5.38;;;4.88;;
17668;SDS011;8953;48.694;8.940;2022-12-18T05:12:41;7.28;;;5.57;;
17668;SDS011;8953;48.694;8.940;2022-12-18T05:15:24;4.90;;;4.50;;
17668;SDS011;8953;48.694;8.940;2022-12-18T05:17:51;5.38;;;4.88;;
17668;SDS011;8953;48.694;8.940;2022-12-18T05:20:18;4.60;;;4.20;;
17668;SDS011;8953;48.694;8.940;2022-12-18T05:22:45;5.05;;;4.65;;
17668;SDS011;8953;48.694;8.940;2022-12-18T05:25:13;4.80;;;4.40;;
17668;SDS011;8953;48.694;8.940;2022-12-18T05:27:40;5.10;;;4.60;;
17668;SDS011;8953;48.694;8.940;2022-12-18T05:30:08;4.50;;;4.10;;
17668;SDS011;8953;48.694;8.940;2022-12-18T05:32:36;4.47;;;4.07;;
17668;SDS011;8953;48.694;8.940;2022-12-18T05:35:05;4.50;;;4.10;;
17668;SDS011;8953;48.694;8.940;2022-12-18T05:37:33;4.90;;;4.50;;
17668;SDS011;8953;48.694;8.940;2022-12-18T05:40:01;5.35;;;4.85;;
17668;SDS011;8953;48.694;8.940;2022-12-18T05:42:28;4.72;;;4.32;;
17668;SDS011;8953;48.694;8.940;2022-12-18T05:44:55;4.72;;;4.22;;
17668;SDS011;8953;48.694;8.940;2022-12-18T05:47:22;4.85;;;4.40;;
17668;SDS011;8953;48.694;8.940;2022-12-18T05:49:51;4.43;;;4.03;;
17668;SDS011;8953;48.694;8.940;2022-12-18T05:52:18;4.60;;;4.20;;
17668;SDS011;8953;48.694;8.940;2022-12-18T05:54:45;4.90;;;4.50;;
17668;SDS011;8953;48.694;8.940;2022-12-18T05:57:12;4.53;;;4.13;;
17668;SDS011;8953;48.694;8.940;2022-12-18T05:59:40;4.70;;;4.30;;
17668;SDS011;8953;48.694;8.940;2022-12-18T06:02:07;5.18;;;4.75;;
17668;SDS011;8953;48.694;8.940;2022-12-18T06:04:34;4.95;;;4.55;;
17668;SDS011;8953;48.694;8.940;2022-12-18T06:07:03;5.10;;;4.60;;
17668;SDS011;8953;48.694;8.940;2022-12-18T06:09:30;4.45;;;4.05;;
17668;SDS011;8953;48.694;8.940;2022-12-18T06:11:58;3.88;;;3.58;;
17668;SDS011;8953;48.694;8.940;2022-12-18T06:14:25;4.68;;;4.28;;
17668;SDS011;8953;48.694;8.940;2022-12-18T06:16:52;4.78;;;4.38;;
17668;SDS011;8953;48.694;8.940;2022-12-18T06:19:20;4.30;;;3.85;;
17668;SDS011;8953;48.694;8.940;2022-12-18T06:21:47;4.53;;;4.10;;
17668;SDS011;8953;48.694;8.940;2022-12-18T06:24:17;4.07;;;3.70;;
17668;SDS011;8953;48.694;8.940;2022-12-18T06:26:44;4.05;;;3.75;;
17668;SDS011;8953;48.694;8.940;2022-12-18T06:29:11;4.13;;;3.72;;
17668;SDS011;8953;48.694;8.940;2022-12-18T06:31:38;4.78;;;4.38;;
17668;SDS011;8953;48.694;8.940;2022-12-18T06:34:06;5.15;;;4.25;;
17668;SDS011;8953;48.694;8.940;2022-12-18T06:36:33;4.72;;;4.22;;
17668;SDS011;8953;48.694;8.940;2022-12-18T06:39:00;4.50;;;4.10;;
17668;SDS011;8953;48.694;8.940;2022-12-18T06:41:29;4.63;;;4.15;;
17668;SDS011;8953;48.694;8.940;2022-12-18T06:43:57;4.35;;;3.95;;
17668;SDS011;8953;48.694;8.940;2022-12-18T06:46:24;4.07;;;3.78;;
17668;SDS011;8953;48.694;8.940;2022-12-18T06:48:51;4.15;;;3.85;;
17668;SDS011;8953;48.694;8.940;2022-12-18T06:51:19;4.40;;;4.00;;
17668;SDS011;8953;48.694;8.940;2022-12-18T06:53:46;4.50;;;4.10;;
17668;SDS011;8953;48.694;8.940;2022-12-18T06:56:13;3.85;;;3.55;;
17668;SDS011;8953;48.694;8.940;2022-12-18T06:58:45;4.40;;;4.00;;
17668;SDS011;8953;48.694;8.940;2022-12-18T07:01:13;4.32;;;3.92;;
17668;SDS011;8953;48.694;8.940;2022-12-18T07:03:40;4.05;;;3.65;;
17668;SDS011;8953;48.694;8.940;2022-12-18T07:06:12;4.05;;;3.65;;
17668;SDS011;8953;48.694;8.940;2022-12-18T07:08:39;4.20;;;3.75;;
17668;SDS011;8953;48.694;8.940;2022-12-18T07:11:10;4.55;;;3.90;;
17668;SDS011;8953;48.694;8.940;2022-12-18T07:13:37;4.35;;;3.95;;
17668;SDS011;8953;48.694;8.940;2022-12-18T07:16:07;4.32;;;3.92;;
17668;SDS011;8953;48.694;8.940;2022-12-18T07:18:35;4.30;;;3.90;;
17668;SDS011;8953;48.694;8.940;2022-12-18T07:21:03;3.95;;;3.55;;
17668;SDS011;8953;48.694;8.940;2022-12-18T07:23:31;4.38;;;3.80;;
17668;SDS011;8953;48.694;8.940;2022-12-18T07:26:00;4.28;;;3.88;;
17668;SDS011;8953;48.694;8.940;2022-12-18T07:28:27;4.50;;;4.10;;
17668;SDS011;8953;48.694;8.940;2022-12-18T07:30:55;4.47;;;4.07;;
17668;SDS011;8953;48.694;8.940;2022-12-18T07:33:23;4.22;;;3.83;;
17668;SDS011;8953;48.694;8.940;2022-12-18T07:35:50;4.78;;;4.15;;
17668;SDS011;8953;48.694;8.940;2022-12-18T07:38:18;4.35;;;3.95;;
17668;SDS011;8953;48.694;8.940;2022-12-18T07:40:45;4.00;;;3.60;;
17668;SDS011;8953;48.694;8.940;2022-12-18T07:43:13;5.70;;;3.80;;
17668;SDS011;8953;48.694;8.940;2022-12-18T07:45:41;6.28;;;4.22;;
17668;SDS011;8953;48.694;8.940;2022-12-18T07:48:09;5.97;;;4.47;;
17668;SDS011;8953;48.694;8.940;2022-12-18T07:50:38;5.18;;;4.68;;
17668;SDS011;8953;48.694;8.940;2022-12-18T07:53:06;4.15;;;3.63;;
17668;SDS011;8953;48.694;8.940;2022-12-18T07:55:34;5.00;;;4.07;;
17668;SDS011;8953;48.694;8.940;2022-12-18T07:58:02;4.47;;;4.05;;
17668;SDS011;8953;48.694;8.940;2022-12-18T08:00:31;5.78;;;4.60;;
17668;SDS011;8953;48.694;8.940;2022-12-18T08:02:59;6.15;;;4.10;;
17668;SDS011;8953;48.694;8.940;2022-12-18T08:05:27;4.88;;;4.25;;
17668;SDS011;8953;48.694;8.940;2022-12-18T08:07:58;5.32;;;4.30;;
17668;SDS011;8953;48.694;8.940;2022-12-18T08:10:26;4.75;;;4.32;;
17668;SDS011;8953;48.694;8.940;2022-12-18T08:12:53;4.85;;;4.30;;
17668;SDS011;8953;48.694;8.940;2022-12-18T08:15:20;5.50;;;4.57;;
17668;SDS011;8953;48.694;8.940;2022-12-18T08:17:48;5.53;;;4.38;;
17668;SDS011;8953;48.694;8.940;2022-12-18T08:20:15;5.03;;;4.35;;
17668;SDS011;8953;48.694;8.940;2022-12-18T08:22:43;7.10;;;4.43;;
17668;SDS011;8953;48.694;8.940;2022-12-18T08:25:12;7.10;;;6.07;;
17668;SDS011;8953;48.694;8.940;2022-12-18T08:27:39;8.63;;;6.68;;
17668;SDS011;8953;48.694;8.940;2022-12-18T08:30:12;9.65;;;7.93;;
17668;SDS011;8953;48.694;8.940;2022-12-18T08:32:40;9.05;;;7.53;;
17668;SDS011;8953;48.694;8.940;2022-12-18T08:35:10;8.23;;;6.97;;
17668;SDS011;8953;48.694;8.940;2022-12-18T08:37:41;9.10;;;6.75;;
17668;SDS011;8953;48.694;8.940;2022-12-18T08:40:08;8.80;;;6.65;;
17668;SDS011;8953;48.694;8.940;2022-12-18T08:42:40;8.13;;;6.43;;
17668;SDS011;8953;48.694;8.940;2022-12-18T08:45:24;6.90;;;6.28;;
17668;SDS011;8953;48.694;8.940;2022-12-18T08:47:52;8.80;;;6.30;;
17668;SDS011;8953;48.694;8.940;2022-12-18T08:50:19;6.22;;;5.63;;
17668;SDS011;8953;48.694;8.940;2022-12-18T08:52:47;7.95;;;5.90;;
17668;SDS011;8953;48.694;8.940;2022-12-18T08:55:14;6.88;;;5.72;;
17668;SDS011;8953;48.694;8.940;2022-12-18T08:57:43;6.18;;;5.57;;
17668;SDS011;8953;48.694;8.940;2022-12-18T09:00:15;5.90;;;5.22;;
17668;SDS011;8953;48.694;8.940;2022-12-18T09:02:43;7.35;;;5.80;;
17668;SDS011;8953;48.694;8.940;2022-12-18T09:05:10;6.00;;;5.40;;
17668;SDS011;8953;48.694;8.940;2022-12-18T09:07:37;6.25;;;5.00;;
17668;SDS011;8953;48.694;8.940;2022-12-18T09:10:05;4.75;;;4.30;;
17668;SDS011;8953;48.694;8.940;2022-12-18T09:12:33;6.15;;;4.80;;
17668;SDS011;8953;48.694;8.940;2022-12-18T09:15:01;5.90;;;4.97;;
17668;SDS011;8953;48.694;8.940;2022-12-18T09:17:29;6.63;;;5.28;;
17668;SDS011;8953;48.694;8.940;2022-12-18T09:19:57;6.45;;;4.72;;
17668;SDS011;8953;48.694;8.940;2022-12-18T09:22:25;6.05;;;5.45;;
17668;SDS011;8953;48.694;8.940;2022-12-18T09:24:52;8.00;;;4.75;;
17668;SDS011;8953;48.694;8.940;2022-12-18T09:27:20;5.32;;;4.72;;
17668;SDS011;8953;48.694;8.940;2022-12-18T09:29:47;6.95;;;4.60;;
17668;SDS011;8953;48.694;8.940;2022-12-18T09:32:16;4.97;;;4.50;;
17668;SDS011;8953;48.694;8.940;2022-12-18T09:34:51;13.80;;;5.15;;
17668;SDS011;8953;48.694;8.940;2022-12-18T09:37:20;5.38;;;4.88;;
17668;SDS011;8953;48.694;8.940;2022-12-18T09:39:49;8.35;;;4.80;;
17668;SDS011;8953;48.694;8.940;2022-12-18T09:42:17;5.47;;;4.65;;
17668;SDS011;8953;48.694;8.940;2022-12-18T09:44:48;6.70;;;4.88;;
17668;SDS011;8953;48.694;8.940;2022-12-18T09:47:18;5.05;;;4.55;;
17668;SDS011;8953;48.694;8.940;2022-12-18T09:49:48;5.28;;;4.78;;
17668;SDS011;8953;48.694;8.940;2022-12-18T09:52:17;4.70;;;4.30;;
17668;SDS011;8953;48.694;8.940;2022-12-18T09:54:46;5.53;;;4.47;;
17668;SDS011;8953;48.694;8.940;2022-12-18T09:57:17;4.97;;;4.47;;
17668;SDS011;8953;48.694;8.940;2022-12-18T09:59:46;7.28;;;4.68;;
17668;SDS011;8953;48.694;8.940;2022-12-18T10:02:15;5.47;;;4.38;;
17668;SDS011;8953;48.694;8.940;2022-12-18T10:04:45;5.70;;;4.75;;
17668;SDS011;8953;48.694;8.940;2022-12-18T10:07:14;20.02;;;5.32;;
17668;SDS011;8953;48.694;8.940;2022-12-18T10:09:46;11.05;;;5.13;;
17668;SDS011;8953;48.694;8.940;2022-12-18T10:12:17;8.95;;;5.43;;
17668;SDS011;8953;48.694;8.940;2022-12-18T10:14:52;5.47;;;4.55;;
17668;SDS011;8953;48.694;8.940;2022-12-18T10:17:23;7.68;;;4.93;;
17668;SDS011;8953;48.694;8.940;2022-12-18T10:19:53;7.88;;;4.93;;
17668;SDS011;8953;48.694;8.940;2022-12-18T10:22:25;7.35;;;4.90;;
17668;SDS011;8953;48.694;8.940;2022-12-18T10:24:54;7.13;;;4.95;;
17668;SDS011;8953;48.694;8.940;2022-12-18T10:27:26;5.50;;;4.53;;
17668;SDS011;8953;48.694;8.940;2022-12-18T10:29:54;6.07;;;4.90;;
17668;SDS011;8953;48.694;8.940;2022-12-18T10:32:21;5.65;;;4.35;;
17668;SDS011;8953;48.694;8.940;2022-12-18T10:34:50;6.55;;;4.53;;
17668;SDS011;8953;48.694;8.940;2022-12-18T10:37:20;6.47;;;4.47;;
17668;SDS011;8953;48.694;8.940;2022-12-18T10:40:04;5.45;;;4.47;;
17668;SDS011;8953;48.694;8.940;2022-12-18T10:42:32;6.93;;;4.90;;
17668;SDS011;8953;48.694;8.940;2022-12-18T10:45:01;5.38;;;4.50;;
17668;SDS011;8953;48.694;8.940;2022-12-18T10:47:28;6.38;;;4.20;;
17668;SDS011;8953;48.694;8.940;2022-12-18T10:49:56;7.15;;;4.65;;
17668;SDS011;8953;48.694;8.940;2022-12-18T10:52:25;7.55;;;4.53;;
17668;SDS011;8953;48.694;8.940;2022-12-18T10:54:54;5.82;;;4.50;;
17668;SDS011;8953;48.694;8.940;2022-12-18T10:57:30;5.53;;;4.35;;
17668;SDS011;8953;48.694;8.940;2022-12-18T10:59:58;7.18;;;4.88;;
17668;SDS011;8953;48.694;8.940;2022-12-18T11:02:27;5.07;;;4.47;;
17668;SDS011;8953;48.694;8.940;2022-12-18T11:04:55;6.47;;;4.00;;
17668;SDS011;8953;48.694;8.940;2022-12-18T11:07:22;7.10;;;5.22;;
17668;SDS011;8953;48.694;8.940;2022-12-18T11:10:00;7.25;;;5.40;;
17668;SDS011;8953;48.694;8.940;2022-12-18T11:12:28;6.95;;;5.25;;
17668;SDS011;8953;48.694;8.940;2022-12-18T11:14:55;10.27;;;5.18;;
17668;SDS011;8953;48.694;8.940;2022-12-18T11:17:25;7.00;;;5.15;;
17668;SDS011;8953;48.694;8.940;2022-12-18T11:19:57;6.15;;;4.93;;
17668;SDS011;8953;48.694;8.940;2022-12-18T11:22:25;7.50;;;5.07;;
17668;SDS011;8953;48.694;8.940;2022-12-18T11:24:55;7.72;;;4.90;;
17668;SDS011;8953;48.694;8.940;2022-12-18T11:27:26;9.68;;;5.13;;
17668;SDS011;8953;48.694;8.940;2022-12-18T11:30:06;8.48;;;4.82;;
17668;SDS011;8953;48.694;8.940;2022-12-18T11:32:34;5.93;;;4.95;;
17668;SDS011;8953;48.694;8.940;2022-12-18T11:35:03;8.05;;;4.63;;
17668;SDS011;8953;48.694;8.940;2022-12-18T11:37:34;6.45;;;5.03;;
17668;SDS011;8953;48.694;8.940;2022-12-18T11:40:02;8.73;;;4.68;;
17668;SDS011;8953;48.694;8.940;2022-12-18T11:42:36;5.53;;;4.80;;
17668;SDS011;8953;48.694;8.940;2022-12-18T11:45:09;5.75;;;4.60;;
17668;SDS011;8953;48.694;8.940;2022-12-18T11:47:46;6.35;;;4.65;;
17668;SDS011;8953;48.694;8.940;2022-12-18T11:50:17;6.95;;;4.53;;
17668;SDS011;8953;48.694;8.940;2022-12-18T11:52:45;8.23;;;4.72;;
17668;SDS011;8953;48.694;8.940;2022-12-18T11:55:14;5.25;;;3.95;;
17668;SDS011;8953;48.694;8.940;2022-12-18T11:57:44;6.30;;;4.50;;
17668;SDS011;8953;48.694;8.940;2022-12-18T12:00:16;8.95;;;4.63;;
17668;SDS011;8953;48.694;8.940;2022-12-18T12:02:54;5.78;;;4.25;;
17668;SDS011;8953;48.694;8.940;2022-12-18T12:05:27;6.35;;;4.47;;
17668;SDS011;8953;48.694;8.940;2022-12-18T12:07:57;4.95;;;4.35;;
17668;SDS011;8953;48.694;8.940;2022-12-18T12:10:29;5.85;;;4.47;;
17668;SDS011;8953;48.694;8.940;2022-12-18T12:13:03;4.63;;;4.13;;
17668;SDS011;8953;48.694;8.940;2022-12-18T12:15:35;5.35;;;4.47;;
17668;SDS011;8953;48.694;8.940;2022-12-18T12:18:08;6.38;;;4.53;;
17668;SDS011;8953;48.694;8.940;2022-12-18T12:20:42;8.30;;;4.53;;
17668;SDS011;8953;48.694;8.940;2022-12-18T12:23:18;6.18;;;4.63;;
17668;SDS011;8953;48.694;8.940;2022-12-18T12:25:48;4.50;;;3.92;;
17668;SDS011;8953;48.694;8.940;2022-12-18T12:28:25;5.50;;;4.30;;
17668;SDS011;8953;48.694;8.940;2022-12-18T12:30:57;4.93;;;4.15;;
17668;SDS011;8953;48.694;8.940;2022-12-18T12:33:29;5.63;;;3.90;;
17668;SDS011;8953;48.694;8.940;2022-12-18T12:36:02;4.95;;;4.45;;
17668;SDS011;8953;48.694;8.940;2022-12-18T12:38:35;5.28;;;4.30;;
17668;SDS011;8953;48.694;8.940;2022-12-18T12:41:04;6.53;;;4.78;;
17668;SDS011;8953;48.694;8.940;2022-12-18T12:43:53;5.25;;;4.35;;
17668;SDS011;8953;48.694;8.940;2022-12-18T12:46:22;6.10;;;4.70;;
17668;SDS011;8953;48.694;8.940;2022-12-18T12:48:51;4.93;;;4.43;;
17668;SDS011;8953;48.694;8.940;2022-12-18T12:51:21;5.75;;;4.03;;
17668;SDS011;8953;48.694;8.940;2022-12-18T12:53:49;4.72;;;4.00;;
17668;SDS011;8953;48.694;8.940;2022-12-18T12:56:17;4.50;;;4.05;;
17668;SDS011;8953;48.694;8.940;2022-12-18T12:58:46;4.32;;;3.92;;
17668;SDS011;8953;48.694;8.940;2022-12-18T13:01:19;4.43;;;3.92;;
17668;SDS011;8953;48.694;8.940;2022-12-18T13:03:51;4.95;;;3.80;;
17668;SDS011;8953;48.694;8.940;2022-12-18T13:06:23;4.35;;;3.92;;
17668;SDS011;8953;48.694;8.940;2022-12-18T13:08:53;4.60;;;4.07;;
17668;SDS011;8953;48.694;8.940;2022-12-18T13:14:30;4.47;;;4.00;;
17668;SDS011;8953;48.694;8.940;2022-12-18T13:20:07;4.82;;;3.90;;
17668;SDS011;8953;48.694;8.940;2022-12-18T13:22:35;6.70;;;4.38;;
17668;SDS011;8953;48.694;8.940;2022-12-18T13:25:04;10.43;;;5.43;;
17668;SDS011;8953;48.694;8.940;2022-12-18T13:27:59;15.77;;;5.70;;
17668;SDS011;8953;48.694;8.940;2022-12-18T13:30:41;14.55;;;6.22;;
17668;SDS011;8953;48.694;8.940;2022-12-18T13:36:00;12.25;;;5.38;;
17668;SDS011;8953;48.694;8.940;2022-12-18T13:38:32;12.38;;;5.75;;
17668;SDS011;8953;48.694;8.940;2022-12-18T13:41:00;11.55;;;5.63;;
17668;SDS011;8953;48.694;8.940;2022-12-18T13:43:36;10.82;;;5.47;;
17668;SDS011;8953;48.694;8.940;2022-12-18T13:46:05;8.10;;;5.05;;
17668;SDS011;8953;48.694;8.940;2022-12-18T13:48:34;10.25;;;5.18;;
17668;SDS011;8953;48.694;8.940;2022-12-18T13:51:05;6.43;;;5.10;;
17668;SDS011;8953;48.694;8.940;2022-12-18T13:53:34;8.30;;;4.85;;
17668;SDS011;8953;48.694;8.940;2022-12-18T13:56:02;11.10;;;5.28;;
17668;SDS011;8953;48.694;8.940;2022-12-18T13:58:30;5.68;;;4.45;;
17668;SDS011;8953;48.694;8.940;2022-12-18T14:00:58;9.25;;;5.07;;
17668;SDS011;8953;48.694;8.940;2022-12-18T14:03:27;8.25;;;5.05;;
17668;SDS011;8953;48.694;8.940;2022-12-18T14:05:59;7.93;;;5.28;;
17668;SDS011;8953;48.694;8.940;2022-12-18T14:08:30;7.10;;;4.47;;
17668;SDS011;8953;48.694;8.940;2022-12-18T14:10:59;6.13;;;4.28;;
17668;SDS011;8953;48.694;8.940;2022-12-18T14:13:28;6.95;;;4.57;;
17668;SDS011;8953;48.694;8.940;2022-12-18T14:15:56;6.38;;;4.47;;
17668;SDS011;8953;48.694;8.940;2022-12-18T14:18:25;7.55;;;5.07;;
17668;SDS011;8953;48.694;8.940;2022-12-18T14:20:54;5.57;;;4.18;;
17668;SDS011;8953;48.694;8.940;2022-12-18T14:23:30;5.68;;;4.63;;
17668;SDS011;8953;48.694;8.940;2022-12-18T14:25:58;9.00;;;4.18;;
17668;SDS011;8953;48.694;8.940;2022-12-18T14:28:25;5.03;;;4.32;;
17668;SDS011;8953;48.694;8.940;2022-12-18T14:30:52;6.07;;;4.22;;
17668;SDS011;8953;48.694;8.940;2022-12-18T14:33:22;4.80;;;4.07;;
17668;SDS011;8953;48.694;8.940;2022-12-18T14:35:54;5.55;;;4.03;;
17668;SDS011;8953;48.694;8.940;2022-12-18T14:38:23;7.15;;;4.40;;
17668;SDS011;8953;48.694;8.940;2022-12-18T14:40:59;6.57;;;4.10;;
17668;SDS011;8953;48.694;8.940;2022-12-18T14:43:27;5.22;;;4.40;;
17668;SDS011;8953;48.694;8.940;2022-12-18T14:45:55;6.57;;;4.60;;
17668;SDS011;8953;48.694;8.940;2022-12-18T14:48:25;5.20;;;3.95;;
17668;SDS011;8953;48.694;8.940;2022-12-18T14:51:00;4.90;;;4.05;;
17668;SDS011;8953;48.694;8.940;2022-12-18T14:53:31;5.90;;;4.20;;
17668;SDS011;8953;48.694;8.940;2022-12-18T14:56:00;4.03;;;3.55;;
17668;SDS011;8953;48.694;8.940;2022-12-18T14:58:28;6.18;;;4.00;;
17668;SDS011;8953;48.694;8.940;2022-12-18T15:00:55;4.90;;;3.90;;
17668;SDS011;8953;48.694;8.940;2022-12-18T15:03:22;6.90;;;4.22;;
17668;SDS011;8953;48.694;8.940;2022-12-18T15:05:49;4.07;;;3.67;;
17668;SDS011;8953;48.694;8.940;2022-12-18T15:08:34;4.25;;;3.50;;
17668;SDS011;8953;48.694;8.940;2022-12-18T15:13:46;5.90;;;4.47;;
17668;SDS011;8953;48.694;8.940;2022-12-18T15:16:13;4.22;;;3.63;;
17668;SDS011;8953;48.694;8.940;2022-12-18T15:18:41;4.53;;;4.00;;
17668;SDS011;8953;48.694;8.940;2022-12-18T15:21:10;5.22;;;4.00;;
17668;SDS011;8953;48.694;8.940;2022-12-18T15:23:47;4.47;;;4.07;;
17668;SDS011;8953;48.694;8.940;2022-12-18T15:26:15;3.88;;;3.33;;